Fukui, Japan

3:33 PM JST on September 17, 2014 (GMT +0900)
Komatsu | Change Station
CLOSE
Current Station
Airport
Location: Komatsu AB,
Elevation: 30 ft
Nearby Weather Stations

Elev 30 ft 36.39 °N, 136.41 °E | Updated 33 minutes ago

Mostly Cloudy
Mostly Cloudy
75 °F
Feels Like 75 °F
N
15
Wind Variable Wind from North

Today
High -- | Low -- °F
--% Chance of Precip.
Yesterday
High -- | Low -- °F
Precip. -- in
5:38 AM 6:00 PM
Last Quarter, 38% visible
Pressure 29.95 in
Visibility 6.2 miles
Clouds Few 2000 ft
Scattered Clouds 10000 ft
Mostly Cloudy 18000 ft
Dew Point 57 °F
Humidity 53%
Rainfall 0.00 in
Snow Depth Not available.
UV 2 out of 12
Pollen Not available.
Air Quality Not available.
Flu Activity Not available.
METAR RJNK 170600Z 36013KT 9999 FEW020 SCT100 BKN180 24/14 Q1014

More Conditions Fewer Conditions

Pressure 29.95 in
Visibility 6.2 miles
Clouds Few 2000 ft
Scattered Clouds 10000 ft
Mostly Cloudy 18000 ft
Dew Point 57 °F
Humidity 53%
Rainfall 0.00 in
Snow Depth Not available.
UV 2 out of 12
Pollen Not available.
Air Quality Not available.
Flu Activity Not available.
METAR RJNK 170600Z 36013KT 9999 FEW020 SCT100 BKN180 24/14 Q1014

More Conditions Fewer Conditions

10-Day Weather Forecast

Almanac

Astronomy

Sep. 17, 2014 Rise Set
Actual Time 5:38 AM JST 6:00 PM JST
Civil Twilight 5:13 AM JST 6:26 PM JST
Nautical Twilight 4:42 AM JST 6:56 PM JST
Astronomical Twilight 4:12 AM JST 7:27 PM JST
Moon No Moon Rise 1:34 PM JST
Length of Visible Light 13h 13m
Length of Day
12h 21m
Tomorrow will be 2m 16s shorter.
Last Quarter, 38% of the Moon is Illuminated
Today
Last Quarter
Sep 24
New
Oct 1
First Quarter
Oct 8
Full
Oct 15
Last Quarter

Yesterday's Extremes

Country Highs Country Lows

Community

WunderPhotos

Upload Photos

1,753,970 photos uploaded!

Nearby

Snow Depth

Not available.

Earthquake Activity

City Distance Mag. Time & Date
No recent earthquake activity has been reported nearby.
Minimum magnitude displayed is 2.5.

Coastal Water Temperatures

Place Temperature
No Stations Reporting

Nearby Weather Stations